Time;durP1;ratioP1;P1;durP2;ratioP2;P2;SDS_P1;SDS_P2;PMS_P1;PMS_P2;Temp;Humidity;BMP_temperature;BMP_pressure;BME280_temperature;BME280_humidity;BME280_pressure;Samples;Min_cycle;Max_cycle;Signal;HPM_P1;HPM_P2
2021/05/08 00:01:17;;;;;;;3.37;2.70;;;;;;;22.75;41.29;93956.97;827890;71;32680;-78
2021/05/08 00:16:09;;;;;;;4.20;3.33;;;;;;;22.82;41.30;93963.48;835333;71;30341;-77
2021/05/08 00:31:17;;;;;;;3.07;2.87;;;;;;;22.82;41.24;93987.55;827572;71;33256;-77
2021/05/08 00:46:08;;;;;;;4.03;3.60;;;;;;;22.67;41.03;94036.21;828508;71;30322;-77
2021/05/08 01:01:09;;;;;;;5.50;4.97;;;;;;;22.57;41.86;94085.28;828497;71;30389;-76
2021/05/08 01:16:13;;;;;;;6.40;5.90;;;;;;;22.54;42.42;94155.55;828399;71;32144;-79
2021/05/08 01:31:09;;;;;;;7.80;7.12;;;;;;;22.44;43.07;94197.69;828472;71;29734;-78
2021/05/08 01:46:12;;;;;;;12.63;11.43;;;;;;;20.33;47.16;94221.23;834634;71;31275;-81
2021/05/08 02:01:08;;;;;;;10.78;9.88;;;;;;;18.98;51.69;94238.27;834292;71;29816;-79
2021/05/08 02:16:14;;;;;;;10.13;9.23;;;;;;;18.39;52.42;94257.22;834087;71;33005;-76
2021/05/08 02:31:08;;;;;;;6.92;6.33;;;;;;;17.82;52.47;94282.50;834723;71;29663;-78
2021/05/08 02:46:14;;;;;;;6.17;5.67;;;;;;;17.27;52.80;94314.48;828488;71;32706;-78
2021/05/08 03:01:47;;;;;;;6.25;5.65;;;;;;;16.76;53.46;94327.30;827546;71;33139;-80
2021/05/08 03:16:14;;;;;;;5.28;4.87;;;;;;;16.57;53.77;94368.91;827760;71;32684;-76
2021/05/08 03:31:14;;;;;;;4.50;4.20;;;;;;;16.54;53.50;94401.33;834194;71;32627;-78
2021/05/08 03:46:08;;;;;;;3.98;3.67;;;;;;;16.32;54.08;94432.92;828342;71;29736;-78
2021/05/08 04:01:18;;;;;;;4.28;3.90;;;;;;;16.22;54.17;94435.45;827805;71;32619;-78
2021/05/08 04:16:14;;;;;;;5.80;5.30;;;;;;;16.03;54.55;94469.75;827656;71;32749;-80
2021/05/08 04:31:14;;;;;;;5.67;5.20;;;;;;;16.01;54.33;94491.79;827765;71;32661;-76
2021/05/08 04:46:14;;;;;;;5.05;4.65;;;;;;;16.12;53.47;94502.80;834221;71;33296;-79
2021/05/08 05:01:18;;;;;;;4.35;3.95;;;;;;;16.51;51.77;94517.23;829210;70;32688;-77
2021/05/08 05:16:15;;;;;;;3.55;3.35;;;;;;;17.10;49.47;94522.88;834157;71;32691;-78
2021/05/08 05:31:10;;;;;;;3.40;3.20;;;;;;;16.86;48.62;94505.78;828214;71;30754;-79
2021/05/08 05:46:16;;;;;;;3.80;3.60;;;;;;;16.95;54.14;94548.10;823491;71;32797;-78
2021/05/08 06:01:15;;;;;;;3.27;2.98;;;;;;;19.08;48.63;94560.89;827659;71;32765;-77
2021/05/08 06:16:18;;;;;;;6.22;5.72;;;;;;;19.54;45.58;94591.13;834352;71;32685;-77
2021/05/08 06:31:11;;;;;;;3.60;3.35;;;;;;;19.65;42.92;94611.34;834316;71;30777;-83
2021/05/08 06:46:09;;;;;;;2.87;2.70;;;;;;;18.71;43.04;94600.85;824694;71;29757;-83
2021/05/08 07:01:58;;;;;;;3.87;3.67;;;;;;;17.87;44.85;94605.37;815860;72;33288;-82
2021/05/08 07:31:29;;;;;;;5.53;5.12;;;;;;;16.91;46.22;94622.22;828560;71;32710;-87
2021/05/08 07:46:10;;;;;;;5.90;5.40;;;;;;;16.70;46.93;94627.47;828620;71;29681;-85
2021/05/08 09:46:56;;;;;;;;;;;;;;;;;;;;;
2021/05/08 10:16:14;;;;;;;4.90;4.50;;;;;;;20.87;36.66;94581.61;829128;71;30270;-80
2021/05/08 10:31:22;;;;;;;4.10;3.83;;;;;;;21.47;34.71;94617.28;794104;74;32862;-79
2021/05/08 10:46:17;;;;;;;15.98;14.38;;;;;;;22.26;38.80;94607.13;824717;71;33104;-80
2021/05/08 11:01:24;;;;;;;5.50;5.07;;;;;;;22.79;34.17;94601.19;834849;71;32697;-81
2021/05/08 11:17:00;;;;;;;4.17;3.87;;;;;;;23.38;31.38;94599.41;826205;70;32927;-82
2021/05/08 11:31:18;;;;;;;3.60;3.40;;;;;;;23.62;29.67;94604.78;823898;70;32827;-77
2021/05/08 11:46:57;;;;;;;4.23;3.90;;;;;;;23.60;29.92;94590.99;815613;72;33406;-81
2021/05/08 12:31:24;;;;;;;5.07;4.10;;;;;;;23.94;37.93;94587.68;844288;69;32602;-79
2021/05/08 12:46:15;;;;;;;3.50;3.30;;;;;;;24.65;32.94;94565.18;827578;71;32685;-78
2021/05/08 13:46:53;;;;;;;2.60;2.40;;;;;;;21.72;31.22;94541.58;830708;71;32731;-80
2021/05/08 14:16:22;;;;;;;2.80;2.60;;;;;;;20.96;31.80;94574.72;834902;71;32703;-81
2021/05/08 15:31:34;;;;;;;;;;;;;;;;;;;;;
2021/05/08 16:16:24;;;;;;;2.70;2.50;;;;;;;18.08;33.27;94601.83;834208;71;32866;-83
2021/05/08 16:31:56;;;;;;;2.40;2.20;;;;;;;17.80;34.04;94634.30;791033;73;33407;-77
2021/05/08 17:01:29;;;;;;;4.22;2.80;;;;;;;17.08;34.84;94670.89;867571;68;33483;-82
2021/05/08 17:16:09;;;;;;;3.15;2.80;;;;;;;16.76;35.58;94699.06;834232;71;30298;-83
2021/05/08 17:31:13;;;;;;;3.37;3.08;;;;;;;16.54;35.74;94719.98;829025;71;30418;-85
2021/05/08 17:46:11;;;;;;;5.05;4.15;;;;;;;16.27;36.15;94742.39;828300;71;30822;-82
2021/05/08 18:01:09;;;;;;;3.90;3.55;;;;;;;15.87;36.87;94761.17;828050;71;31068;-77
2021/05/08 18:16:09;;;;;;;4.37;3.62;;;;;;;15.52;37.14;94788.19;828191;71;30233;-79
2021/05/08 18:31:15;;;;;;;3.58;3.02;;;;;;;15.22;37.17;94820.49;827470;71;32722;-80
2021/05/08 18:46:09;;;;;;;4.12;3.08;;;;;;;14.94;37.55;94848.25;828424;71;31171;-76
2021/05/08 19:01:19;;;;;;;3.67;3.37;;;;;;;14.72;37.78;94875.52;827821;71;32800;-77
2021/05/08 19:16:25;;;;;;;3.10;2.95;;;;;;;14.47;37.83;94893.54;828245;71;33110;-79
2021/05/08 19:31:16;;;;;;;3.50;3.20;;;;;;;14.29;38.28;94906.39;812620;71;32819;-81
2021/05/08 19:46:08;;;;;;;3.27;3.05;;;;;;;14.08;38.64;94921.39;828322;71;29735;-81
2021/05/08 20:01:11;;;;;;;3.00;2.80;;;;;;;13.92;38.99;94926.77;828853;71;30285;-82
2021/05/08 20:16:10;;;;;;;2.80;2.65;;;;;;;13.75;39.81;94937.41;834916;71;29720;-85
2021/05/08 20:31:08;;;;;;;3.15;2.85;;;;;;;13.43;39.85;94921.19;834977;71;29413;-83
2021/05/08 20:46:14;;;;;;;5.12;3.10;;;;;;;14.32;41.08;94941.45;834460;71;32696;-83
2021/05/08 21:01:47;;;;;;;3.25;3.05;;;;;;;13.69;40.39;94942.55;828506;71;32594;-84
2021/05/08 21:16:19;;;;;;;5.17;3.15;;;;;;;13.31;40.29;94953.31;827976;71;32747;-83
2021/05/08 21:31:10;;;;;;;2.90;2.70;;;;;;;13.05;40.52;94962.19;828607;71;30106;-85
2021/05/08 21:46:10;;;;;;;3.60;3.25;;;;;;;12.88;40.75;94969.34;809513;73;30401;-87
2021/05/08 22:01:28;;;;;;;3.22;3.02;;;;;;;12.73;40.99;94969.08;835439;70;32795;-85
2021/05/08 22:16:18;;;;;;;3.75;3.45;;;;;;;12.59;41.43;94972.18;828470;71;33012;-87
2021/05/08 22:31:20;;;;;;;3.37;3.08;;;;;;;12.41;41.93;94960.10;828060;71;32793;-86
2021/05/08 22:46:12;;;;;;;3.80;3.42;;;;;;;12.25;42.45;94971.13;829033;71;31374;-84
2021/05/08 23:01:15;;;;;;;3.37;3.17;;;;;;;11.97;43.10;94970.47;829452;70;32961;-84
2021/05/08 23:16:18;;;;;;;3.87;3.20;;;;;;;11.98;43.66;94990.97;828314;71;32665;-85
2021/05/08 23:31:12;;;;;;;3.30;3.10;;;;;;;11.82;44.56;94996.95;829021;71;31533;-84
2021/05/08 23:46:08;;;;;;;3.33;3.12;;;;;;;11.59;45.18;94987.48;834928;71;29924;-83
